sensor_id;sensor_type;location;lat;lon;timestamp;P1;P2;P0
80692;PMS5003;70055;39.436;-77.514;2024-01-16T00:02:14;31;29;
80692;PMS5003;70055;39.436;-77.514;2024-01-16T00:04:42;20;19;
80692;PMS5003;70055;39.436;-77.514;2024-01-16T00:07:10;20;19;
80692;PMS5003;70055;39.436;-77.514;2024-01-16T00:09:40;22;20;
80692;PMS5003;70055;39.436;-77.514;2024-01-16T00:12:09;25;25;
80692;PMS5003;70055;39.436;-77.514;2024-01-16T00:14:37;20;20;
80692;PMS5003;70055;39.436;-77.514;2024-01-16T00:17:06;22;22;
80692;PMS5003;70055;39.436;-77.514;2024-01-16T00:19:34;20;20;
80692;PMS5003;70055;39.436;-77.514;2024-01-16T00:22:02;21;21;
80692;PMS5003;70055;39.436;-77.514;2024-01-16T00:24:31;20;19;
80692;PMS5003;70055;39.436;-77.514;2024-01-16T00:26:59;22;20;
80692;PMS5003;70055;39.436;-77.514;2024-01-16T00:29:27;18;18;
80692;PMS5003;70055;39.436;-77.514;2024-01-16T00:31:55;21;20;
80692;PMS5003;70055;39.436;-77.514;2024-01-16T00:34:23;17;16;
80692;PMS5003;70055;39.436;-77.514;2024-01-16T00:36:55;21;20;
80692;PMS5003;70055;39.436;-77.514;2024-01-16T00:39:25;18;17;
80692;PMS5003;70055;39.436;-77.514;2024-01-16T00:41:54;17;15;
80692;PMS5003;70055;39.436;-77.514;2024-01-16T00:44:22;17;17;
80692;PMS5003;70055;39.436;-77.514;2024-01-16T00:46:50;17;17;
80692;PMS5003;70055;39.436;-77.514;2024-01-16T00:49:21;21;21;
80692;PMS5003;70055;39.436;-77.514;2024-01-16T00:51:52;21;20;
80692;PMS5003;70055;39.436;-77.514;2024-01-16T00:54:23;19;19;
80692;PMS5003;70055;39.436;-77.514;2024-01-16T00:56:52;24;20;
80692;PMS5003;70055;39.436;-77.514;2024-01-16T00:59:21;21;20;
80692;PMS5003;70055;39.436;-77.514;2024-01-16T01:01:50;19;19;
80692;PMS5003;70055;39.436;-77.514;2024-01-16T01:04:19;18;18;
80692;PMS5003;70055;39.436;-77.514;2024-01-16T01:06:48;21;20;
80692;PMS5003;70055;39.436;-77.514;2024-01-16T01:09:17;20;20;
80692;PMS5003;70055;39.436;-77.514;2024-01-16T01:11:45;23;20;
80692;PMS5003;70055;39.436;-77.514;2024-01-16T01:14:16;20;20;
80692;PMS5003;70055;39.436;-77.514;2024-01-16T01:16:44;21;21;
80692;PMS5003;70055;39.436;-77.514;2024-01-16T01:19:12;23;21;
80692;PMS5003;70055;39.436;-77.514;2024-01-16T01:21:40;25;24;
80692;PMS5003;70055;39.436;-77.514;2024-01-16T01:24:10;19;19;
80692;PMS5003;70055;39.436;-77.514;2024-01-16T01:26:39;20;18;
80692;PMS5003;70055;39.436;-77.514;2024-01-16T01:29:15;15;15;
80692;PMS5003;70055;39.436;-77.514;2024-01-16T01:31:47;17;17;
80692;PMS5003;70055;39.436;-77.514;2024-01-16T01:34:18;19;17;
80692;PMS5003;70055;39.436;-77.514;2024-01-16T01:36:47;16;16;
80692;PMS5003;70055;39.436;-77.514;2024-01-16T01:39:17;17;17;
80692;PMS5003;70055;39.436;-77.514;2024-01-16T01:41:46;17;17;
80692;PMS5003;70055;39.436;-77.514;2024-01-16T01:44:17;14;14;
80692;PMS5003;70055;39.436;-77.514;2024-01-16T01:46:47;17;17;
80692;PMS5003;70055;39.436;-77.514;2024-01-16T01:49:17;16;16;
80692;PMS5003;70055;39.436;-77.514;2024-01-16T01:51:48;17;17;
80692;PMS5003;70055;39.436;-77.514;2024-01-16T01:54:18;16;14;
80692;PMS5003;70055;39.436;-77.514;2024-01-16T01:56:48;20;20;
80692;PMS5003;70055;39.436;-77.514;2024-01-16T01:59:19;24;22;
80692;PMS5003;70055;39.436;-77.514;2024-01-16T02:01:52;19;19;
80692;PMS5003;70055;39.436;-77.514;2024-01-16T02:04:23;19;17;
80692;PMS5003;70055;39.436;-77.514;2024-01-16T02:06:55;18;16;
80692;PMS5003;70055;39.436;-77.514;2024-01-16T02:09:25;19;18;
80692;PMS5003;70055;39.436;-77.514;2024-01-16T02:11:59;16;16;
80692;PMS5003;70055;39.436;-77.514;2024-01-16T02:14:28;22;22;
80692;PMS5003;70055;39.436;-77.514;2024-01-16T02:16:56;19;18;
80692;PMS5003;70055;39.436;-77.514;2024-01-16T02:19:26;16;16;
80692;PMS5003;70055;39.436;-77.514;2024-01-16T02:21:57;16;16;
80692;PMS5003;70055;39.436;-77.514;2024-01-16T02:24:31;19;18;
80692;PMS5003;70055;39.436;-77.514;2024-01-16T02:27:02;16;15;
80692;PMS5003;70055;39.436;-77.514;2024-01-16T02:29:31;15;15;
80692;PMS5003;70055;39.436;-77.514;2024-01-16T02:31:59;16;16;
80692;PMS5003;70055;39.436;-77.514;2024-01-16T02:34:27;19;19;
80692;PMS5003;70055;39.436;-77.514;2024-01-16T02:36:55;19;19;
80692;PMS5003;70055;39.436;-77.514;2024-01-16T02:39:24;22;21;
80692;PMS5003;70055;39.436;-77.514;2024-01-16T02:41:54;18;16;
80692;PMS5003;70055;39.436;-77.514;2024-01-16T02:44:25;13;13;
80692;PMS5003;70055;39.436;-77.514;2024-01-16T02:46:55;18;18;
80692;PMS5003;70055;39.436;-77.514;2024-01-16T02:49:26;18;16;
80692;PMS5003;70055;39.436;-77.514;2024-01-16T02:51:56;18;16;
80692;PMS5003;70055;39.436;-77.514;2024-01-16T02:54:24;22;22;
80692;PMS5003;70055;39.436;-77.514;2024-01-16T02:56:52;22;21;
80692;PMS5003;70055;39.436;-77.514;2024-01-16T02:59:22;19;18;
80692;PMS5003;70055;39.436;-77.514;2024-01-16T03:01:50;19;19;
80692;PMS5003;70055;39.436;-77.514;2024-01-16T03:04:19;18;18;
80692;PMS5003;70055;39.436;-77.514;2024-01-16T03:06:48;19;19;
80692;PMS5003;70055;39.436;-77.514;2024-01-16T03:09:16;21;21;
80692;PMS5003;70055;39.436;-77.514;2024-01-16T03:11:45;24;22;
80692;PMS5003;70055;39.436;-77.514;2024-01-16T03:14:13;25;22;
80692;PMS5003;70055;39.436;-77.514;2024-01-16T03:16:41;22;21;
80692;PMS5003;70055;39.436;-77.514;2024-01-16T03:19:09;18;16;
80692;PMS5003;70055;39.436;-77.514;2024-01-16T03:21:39;19;19;
80692;PMS5003;70055;39.436;-77.514;2024-01-16T03:24:09;24;22;
80692;PMS5003;70055;39.436;-77.514;2024-01-16T03:26:37;18;18;
80692;PMS5003;70055;39.436;-77.514;2024-01-16T03:29:07;19;19;
80692;PMS5003;70055;39.436;-77.514;2024-01-16T03:31:35;19;19;
80692;PMS5003;70055;39.436;-77.514;2024-01-16T03:34:03;18;18;
80692;PMS5003;70055;39.436;-77.514;2024-01-16T03:36:32;19;19;
80692;PMS5003;70055;39.436;-77.514;2024-01-16T03:39:01;25;22;
80692;PMS5003;70055;39.436;-77.514;2024-01-16T03:41:28;22;22;
80692;PMS5003;70055;39.436;-77.514;2024-01-16T03:44:02;22;22;
80692;PMS5003;70055;39.436;-77.514;2024-01-16T03:46:30;21;19;
80692;PMS5003;70055;39.436;-77.514;2024-01-16T03:48:58;24;22;
80692;PMS5003;70055;39.436;-77.514;2024-01-16T03:51:26;18;18;
80692;PMS5003;70055;39.436;-77.514;2024-01-16T03:53:55;24;22;
80692;PMS5003;70055;39.436;-77.514;2024-01-16T03:56:26;27;25;
80692;PMS5003;70055;39.436;-77.514;2024-01-16T03:58:58;27;24;
80692;PMS5003;70055;39.436;-77.514;2024-01-16T04:01:30;19;19;
80692;PMS5003;70055;39.436;-77.514;2024-01-16T04:03:59;24;22;
80692;PMS5003;70055;39.436;-77.514;2024-01-16T04:06:27;19;19;
80692;PMS5003;70055;39.436;-77.514;2024-01-16T04:08:55;22;22;
80692;PMS5003;70055;39.436;-77.514;2024-01-16T04:11:23;22;21;
80692;PMS5003;70055;39.436;-77.514;2024-01-16T04:13:51;25;24;
80692;PMS5003;70055;39.436;-77.514;2024-01-16T04:16:21;27;24;
80692;PMS5003;70055;39.436;-77.514;2024-01-16T04:18:48;27;24;
80692;PMS5003;70055;39.436;-77.514;2024-01-16T04:21:17;24;24;
80692;PMS5003;70055;39.436;-77.514;2024-01-16T04:23:47;27;24;
80692;PMS5003;70055;39.436;-77.514;2024-01-16T04:26:14;25;24;
80692;PMS5003;70055;39.436;-77.514;2024-01-16T04:28:42;28;27;
80692;PMS5003;70055;39.436;-77.514;2024-01-16T04:31:13;22;22;
80692;PMS5003;70055;39.436;-77.514;2024-01-16T04:33:43;36;33;
80692;PMS5003;70055;39.436;-77.514;2024-01-16T04:36:12;31;31;
80692;PMS5003;70055;39.436;-77.514;2024-01-16T04:38:40;40;39;
80692;PMS5003;70055;39.436;-77.514;2024-01-16T04:41:08;40;39;
80692;PMS5003;70055;39.436;-77.514;2024-01-16T04:43:36;31;30;
80692;PMS5003;70055;39.436;-77.514;2024-01-16T04:46:04;31;31;
80692;PMS5003;70055;39.436;-77.514;2024-01-16T04:48:32;28;25;
80692;PMS5003;70055;39.436;-77.514;2024-01-16T04:51:00;25;24;
80692;PMS5003;70055;39.436;-77.514;2024-01-16T04:53:27;34;28;
80692;PMS5003;70055;39.436;-77.514;2024-01-16T04:55:55;28;25;
80692;PMS5003;70055;39.436;-77.514;2024-01-16T04:58:28;34;34;
80692;PMS5003;70055;39.436;-77.514;2024-01-16T05:00:56;24;24;
80692;PMS5003;70055;39.436;-77.514;2024-01-16T05:03:25;28;27;
80692;PMS5003;70055;39.436;-77.514;2024-01-16T05:05:53;36;33;
80692;PMS5003;70055;39.436;-77.514;2024-01-16T05:08:22;31;28;
80692;PMS5003;70055;39.436;-77.514;2024-01-16T05:10:50;30;28;
80692;PMS5003;70055;39.436;-77.514;2024-01-16T05:13:19;33;31;
80692;PMS5003;70055;39.436;-77.514;2024-01-16T05:15:48;28;27;
80692;PMS5003;70055;39.436;-77.514;2024-01-16T05:18:18;33;30;
80692;PMS5003;70055;39.436;-77.514;2024-01-16T05:20:48;27;25;
80692;PMS5003;70055;39.436;-77.514;2024-01-16T05:23:16;31;30;
80692;PMS5003;70055;39.436;-77.514;2024-01-16T05:25:44;30;27;
80692;PMS5003;70055;39.436;-77.514;2024-01-16T05:28:12;28;28;
80692;PMS5003;70055;39.436;-77.514;2024-01-16T05:30:40;27;27;
80692;PMS5003;70055;39.436;-77.514;2024-01-16T05:33:09;25;25;
80692;PMS5003;70055;39.436;-77.514;2024-01-16T05:35:37;28;27;
80692;PMS5003;70055;39.436;-77.514;2024-01-16T05:38:05;27;25;
80692;PMS5003;70055;39.436;-77.514;2024-01-16T05:40:33;25;21;
80692;PMS5003;70055;39.436;-77.514;2024-01-16T05:43:03;24;22;
80692;PMS5003;70055;39.436;-77.514;2024-01-16T05:45:33;30;28;
80692;PMS5003;70055;39.436;-77.514;2024-01-16T05:48:00;24;24;
80692;PMS5003;70055;39.436;-77.514;2024-01-16T05:50:28;28;28;
80692;PMS5003;70055;39.436;-77.514;2024-01-16T05:52:56;21;21;
80692;PMS5003;70055;39.436;-77.514;2024-01-16T05:55:24;25;22;
80692;PMS5003;70055;39.436;-77.514;2024-01-16T05:57:51;21;21;
80692;PMS5003;70055;39.436;-77.514;2024-01-16T06:00:20;25;24;
80692;PMS5003;70055;39.436;-77.514;2024-01-16T06:02:48;21;19;
80692;PMS5003;70055;39.436;-77.514;2024-01-16T06:05:16;21;19;
80692;PMS5003;70055;39.436;-77.514;2024-01-16T06:07:45;22;22;
80692;PMS5003;70055;39.436;-77.514;2024-01-16T06:10:13;25;21;
80692;PMS5003;70055;39.436;-77.514;2024-01-16T06:12:41;28;25;
80692;PMS5003;70055;39.436;-77.514;2024-01-16T06:15:09;25;24;
80692;PMS5003;70055;39.436;-77.514;2024-01-16T06:17:37;27;27;
80692;PMS5003;70055;39.436;-77.514;2024-01-16T06:20:08;25;25;
80692;PMS5003;70055;39.436;-77.514;2024-01-16T06:22:37;28;25;
80692;PMS5003;70055;39.436;-77.514;2024-01-16T06:25:06;27;25;
80692;PMS5003;70055;39.436;-77.514;2024-01-16T06:27:34;25;24;
80692;PMS5003;70055;39.436;-77.514;2024-01-16T06:30:03;27;25;
80692;PMS5003;70055;39.436;-77.514;2024-01-16T06:32:32;31;30;
80692;PMS5003;70055;39.436;-77.514;2024-01-16T06:35:01;25;24;
80692;PMS5003;70055;39.436;-77.514;2024-01-16T06:37:31;25;24;
80692;PMS5003;70055;39.436;-77.514;2024-01-16T06:39:59;24;22;
80692;PMS5003;70055;39.436;-77.514;2024-01-16T06:42:27;27;25;
80692;PMS5003;70055;39.436;-77.514;2024-01-16T06:44:55;24;22;
80692;PMS5003;70055;39.436;-77.514;2024-01-16T06:47:23;25;19;
80692;PMS5003;70055;39.436;-77.514;2024-01-16T06:49:51;24;24;
80692;PMS5003;70055;39.436;-77.514;2024-01-16T06:52:19;21;21;
80692;PMS5003;70055;39.436;-77.514;2024-01-16T06:54:47;25;22;
80692;PMS5003;70055;39.436;-77.514;2024-01-16T06:57:14;27;27;
80692;PMS5003;70055;39.436;-77.514;2024-01-16T06:59:42;25;24;
80692;PMS5003;70055;39.436;-77.514;2024-01-16T07:02:12;30;28;
80692;PMS5003;70055;39.436;-77.514;2024-01-16T07:04:40;28;28;
80692;PMS5003;70055;39.436;-77.514;2024-01-16T07:07:09;34;33;
80692;PMS5003;70055;39.436;-77.514;2024-01-16T07:09:36;27;25;
80692;PMS5003;70055;39.436;-77.514;2024-01-16T07:12:08;27;25;
80692;PMS5003;70055;39.436;-77.514;2024-01-16T07:14:36;27;25;
80692;PMS5003;70055;39.436;-77.514;2024-01-16T07:17:04;24;24;
80692;PMS5003;70055;39.436;-77.514;2024-01-16T07:19:33;21;19;
80692;PMS5003;70055;39.436;-77.514;2024-01-16T07:22:01;22;22;
80692;PMS5003;70055;39.436;-77.514;2024-01-16T07:24:28;19;19;
80692;PMS5003;70055;39.436;-77.514;2024-01-16T07:26:56;25;25;
80692;PMS5003;70055;39.436;-77.514;2024-01-16T07:29:25;22;22;
80692;PMS5003;70055;39.436;-77.514;2024-01-16T07:31:53;22;22;
80692;PMS5003;70055;39.436;-77.514;2024-01-16T07:34:21;22;22;
80692;PMS5003;70055;39.436;-77.514;2024-01-16T07:36:49;21;21;
80692;PMS5003;70055;39.436;-77.514;2024-01-16T07:39:16;21;19;
80692;PMS5003;70055;39.436;-77.514;2024-01-16T07:41:45;18;18;
80692;PMS5003;70055;39.436;-77.514;2024-01-16T07:44:12;25;24;
80692;PMS5003;70055;39.436;-77.514;2024-01-16T07:46:40;25;25;
80692;PMS5003;70055;39.436;-77.514;2024-01-16T07:49:08;19;19;
80692;PMS5003;70055;39.436;-77.514;2024-01-16T07:51:36;24;19;
80692;PMS5003;70055;39.436;-77.514;2024-01-16T07:54:05;18;16;
80692;PMS5003;70055;39.436;-77.514;2024-01-16T07:56:34;19;19;
80692;PMS5003;70055;39.436;-77.514;2024-01-16T07:59:03;18;18;
80692;PMS5003;70055;39.436;-77.514;2024-01-16T08:01:30;22;22;
80692;PMS5003;70055;39.436;-77.514;2024-01-16T08:03:59;18;18;
80692;PMS5003;70055;39.436;-77.514;2024-01-16T08:06:27;25;22;
80692;PMS5003;70055;39.436;-77.514;2024-01-16T08:08:55;30;28;
80692;PMS5003;70055;39.436;-77.514;2024-01-16T08:11:23;25;22;
80692;PMS5003;70055;39.436;-77.514;2024-01-16T08:13:52;24;22;
80692;PMS5003;70055;39.436;-77.514;2024-01-16T08:16:21;25;25;
80692;PMS5003;70055;39.436;-77.514;2024-01-16T08:18:51;24;24;
80692;PMS5003;70055;39.436;-77.514;2024-01-16T08:21:19;21;21;
80692;PMS5003;70055;39.436;-77.514;2024-01-16T08:23:47;25;22;
80692;PMS5003;70055;39.436;-77.514;2024-01-16T08:26:15;22;21;
80692;PMS5003;70055;39.436;-77.514;2024-01-16T08:28:43;21;19;
80692;PMS5003;70055;39.436;-77.514;2024-01-16T08:31:11;24;24;
80692;PMS5003;70055;39.436;-77.514;2024-01-16T08:33:41;22;21;
80692;PMS5003;70055;39.436;-77.514;2024-01-16T08:36:09;26;23;
80692;PMS5003;70055;39.436;-77.514;2024-01-16T08:38:37;21;19;
80692;PMS5003;70055;39.436;-77.514;2024-01-16T08:41:05;22;20;
80692;PMS5003;70055;39.436;-77.514;2024-01-16T08:43:34;20;20;
80692;PMS5003;70055;39.436;-77.514;2024-01-16T08:46:02;22;20;
80692;PMS5003;70055;39.436;-77.514;2024-01-16T08:48:29;20;19;
80692;PMS5003;70055;39.436;-77.514;2024-01-16T08:51:00;16;16;
80692;PMS5003;70055;39.436;-77.514;2024-01-16T08:53:30;22;21;
80692;PMS5003;70055;39.436;-77.514;2024-01-16T08:55:58;18;18;
80692;PMS5003;70055;39.436;-77.514;2024-01-16T08:58:25;18;18;
80692;PMS5003;70055;39.436;-77.514;2024-01-16T09:00:53;19;16;
80692;PMS5003;70055;39.436;-77.514;2024-01-16T09:03:22;16;16;
80692;PMS5003;70055;39.436;-77.514;2024-01-16T09:05:49;19;19;
80692;PMS5003;70055;39.436;-77.514;2024-01-16T09:08:18;16;16;
80692;PMS5003;70055;39.436;-77.514;2024-01-16T09:10:45;19;18;
80692;PMS5003;70055;39.436;-77.514;2024-01-16T09:13:13;15;15;
80692;PMS5003;70055;39.436;-77.514;2024-01-16T09:15:42;19;18;
80692;PMS5003;70055;39.436;-77.514;2024-01-16T09:18:10;19;18;
80692;PMS5003;70055;39.436;-77.514;2024-01-16T09:20:38;12;10;
80692;PMS5003;70055;39.436;-77.514;2024-01-16T09:23:09;19;19;
80692;PMS5003;70055;39.436;-77.514;2024-01-16T09:25:37;18;15;
80692;PMS5003;70055;39.436;-77.514;2024-01-16T09:28:05;16;16;
80692;PMS5003;70055;39.436;-77.514;2024-01-16T09:30:33;16;16;
80692;PMS5003;70055;39.436;-77.514;2024-01-16T09:33:01;10;10;
80692;PMS5003;70055;39.436;-77.514;2024-01-16T09:35:29;15;15;
80692;PMS5003;70055;39.436;-77.514;2024-01-16T09:37:57;15;13;
80692;PMS5003;70055;39.436;-77.514;2024-01-16T09:40:24;13;12;
80692;PMS5003;70055;39.436;-77.514;2024-01-16T09:42:52;16;16;
80692;PMS5003;70055;39.436;-77.514;2024-01-16T09:45:20;15;15;
80692;PMS5003;70055;39.436;-77.514;2024-01-16T09:47:49;22;18;
80692;PMS5003;70055;39.436;-77.514;2024-01-16T09:50:19;15;15;
80692;PMS5003;70055;39.436;-77.514;2024-01-16T09:52:49;21;21;
80692;PMS5003;70055;39.436;-77.514;2024-01-16T09:55:19;19;19;
80692;PMS5003;70055;39.436;-77.514;2024-01-16T09:57:46;19;18;
80692;PMS5003;70055;39.436;-77.514;2024-01-16T10:00:20;19;19;
80692;PMS5003;70055;39.436;-77.514;2024-01-16T10:02:50;16;16;
80692;PMS5003;70055;39.436;-77.514;2024-01-16T10:05:20;16;16;
80692;PMS5003;70055;39.436;-77.514;2024-01-16T10:07:50;16;16;
80692;PMS5003;70055;39.436;-77.514;2024-01-16T10:10:19;16;16;
80692;PMS5003;70055;39.436;-77.514;2024-01-16T10:12:47;16;15;
80692;PMS5003;70055;39.436;-77.514;2024-01-16T10:15:17;15;15;
80692;PMS5003;70055;39.436;-77.514;2024-01-16T10:17:48;15;15;
80692;PMS5003;70055;39.436;-77.514;2024-01-16T10:20:16;16;16;
80692;PMS5003;70055;39.436;-77.514;2024-01-16T10:22:59;19;19;
80692;PMS5003;70055;39.436;-77.514;2024-01-16T10:25:27;15;15;
80692;PMS5003;70055;39.436;-77.514;2024-01-16T10:28:02;15;15;
80692;PMS5003;70055;39.436;-77.514;2024-01-16T10:30:31;15;13;
80692;PMS5003;70055;39.436;-77.514;2024-01-16T10:33:12;12;12;
80692;PMS5003;70055;39.436;-77.514;2024-01-16T10:35:41;15;15;
80692;PMS5003;70055;39.436;-77.514;2024-01-16T10:38:08;16;13;
80692;PMS5003;70055;39.436;-77.514;2024-01-16T10:40:36;15;15;
80692;PMS5003;70055;39.436;-77.514;2024-01-16T10:43:05;13;13;
80692;PMS5003;70055;39.436;-77.514;2024-01-16T10:45:34;16;16;
80692;PMS5003;70055;39.436;-77.514;2024-01-16T10:48:02;18;16;
80692;PMS5003;70055;39.436;-77.514;2024-01-16T10:50:30;21;18;
80692;PMS5003;70055;39.436;-77.514;2024-01-16T10:52:59;15;15;
80692;PMS5003;70055;39.436;-77.514;2024-01-16T10:55:30;15;13;
80692;PMS5003;70055;39.436;-77.514;2024-01-16T10:58:04;21;18;
80692;PMS5003;70055;39.436;-77.514;2024-01-16T11:00:35;18;16;
80692;PMS5003;70055;39.436;-77.514;2024-01-16T11:03:11;18;18;
80692;PMS5003;70055;39.436;-77.514;2024-01-16T11:05:48;19;18;
80692;PMS5003;70055;39.436;-77.514;2024-01-16T11:08:17;18;16;
80692;PMS5003;70055;39.436;-77.514;2024-01-16T11:10:45;18;18;
80692;PMS5003;70055;39.436;-77.514;2024-01-16T11:13:14;16;16;
80692;PMS5003;70055;39.436;-77.514;2024-01-16T11:15:44;13;13;
80692;PMS5003;70055;39.436;-77.514;2024-01-16T11:18:16;16;16;
80692;PMS5003;70055;39.436;-77.514;2024-01-16T11:20:44;15;13;
80692;PMS5003;70055;39.436;-77.514;2024-01-16T11:23:13;15;15;
80692;PMS5003;70055;39.436;-77.514;2024-01-16T11:25:41;15;15;
80692;PMS5003;70055;39.436;-77.514;2024-01-16T11:28:10;12;10;
80692;PMS5003;70055;39.436;-77.514;2024-01-16T11:30:39;16;15;
80692;PMS5003;70055;39.436;-77.514;2024-01-16T11:33:41;15;15;
80692;PMS5003;70055;39.436;-77.514;2024-01-16T11:36:42;12;12;
80692;PMS5003;70055;39.436;-77.514;2024-01-16T11:39:17;15;13;
80692;PMS5003;70055;39.436;-77.514;2024-01-16T11:41:49;13;13;
80692;PMS5003;70055;39.436;-77.514;2024-01-16T11:44:51;15;13;
80692;PMS5003;70055;39.436;-77.514;2024-01-16T11:47:22;16;16;
80692;PMS5003;70055;39.436;-77.514;2024-01-16T11:49:51;13;13;
80692;PMS5003;70055;39.436;-77.514;2024-01-16T11:52:39;15;13;
80692;PMS5003;70055;39.436;-77.514;2024-01-16T11:55:24;12;12;
80692;PMS5003;70055;39.436;-77.514;2024-01-16T11:57:57;28;28;
80692;PMS5003;70055;39.436;-77.514;2024-01-16T12:00:38;28;28;
80692;PMS5003;70055;39.436;-77.514;2024-01-16T12:03:08;25;23;
80692;PMS5003;70055;39.436;-77.514;2024-01-16T12:05:41;32;30;
80692;PMS5003;70055;39.436;-77.514;2024-01-16T12:08:09;27;26;
80692;PMS5003;70055;39.436;-77.514;2024-01-16T12:10:45;29;29;
80692;PMS5003;70055;39.436;-77.514;2024-01-16T12:13:14;34;33;
80692;PMS5003;70055;39.436;-77.514;2024-01-16T12:15:43;33;28;
80692;PMS5003;70055;39.436;-77.514;2024-01-16T12:18:17;30;30;
80692;PMS5003;70055;39.436;-77.514;2024-01-16T12:20:45;32;29;
80692;PMS5003;70055;39.436;-77.514;2024-01-16T12:23:13;32;31;
80692;PMS5003;70055;39.436;-77.514;2024-01-16T12:25:42;27;23;
80692;PMS5003;70055;39.436;-77.514;2024-01-16T12:28:12;30;27;
80692;PMS5003;70055;39.436;-77.514;2024-01-16T12:30:40;29;27;
80692;PMS5003;70055;39.436;-77.514;2024-01-16T12:33:20;29;28;
80692;PMS5003;70055;39.436;-77.514;2024-01-16T12:35:59;23;22;
80692;PMS5003;70055;39.436;-77.514;2024-01-16T12:38:31;29;29;
80692;PMS5003;70055;39.436;-77.514;2024-01-16T12:41:00;29;29;
80692;PMS5003;70055;39.436;-77.514;2024-01-16T12:43:32;33;30;
80692;PMS5003;70055;39.436;-77.514;2024-01-16T12:46:02;33;32;
80692;PMS5003;70055;39.436;-77.514;2024-01-16T12:48:30;30;30;
80692;PMS5003;70055;39.436;-77.514;2024-01-16T12:51:00;29;27;
80692;PMS5003;70055;39.436;-77.514;2024-01-16T12:53:28;17;17;
80692;PMS5003;70055;39.436;-77.514;2024-01-16T12:55:58;29;24;
80692;PMS5003;70055;39.436;-77.514;2024-01-16T12:58:32;20;20;
80692;PMS5003;70055;39.436;-77.514;2024-01-16T13:01:20;25;24;
80692;PMS5003;70055;39.436;-77.514;2024-01-16T13:03:49;28;25;
80692;PMS5003;70055;39.436;-77.514;2024-01-16T13:06:19;24;22;
80692;PMS5003;70055;39.436;-77.514;2024-01-16T13:08:48;21;21;
80692;PMS5003;70055;39.436;-77.514;2024-01-16T13:11:17;21;21;
80692;PMS5003;70055;39.436;-77.514;2024-01-16T13:13:46;19;19;
80692;PMS5003;70055;39.436;-77.514;2024-01-16T13:16:17;22;22;
80692;PMS5003;70055;39.436;-77.514;2024-01-16T13:18:47;27;25;
80692;PMS5003;70055;39.436;-77.514;2024-01-16T13:21:27;28;25;
80692;PMS5003;70055;39.436;-77.514;2024-01-16T13:23:56;25;25;
80692;PMS5003;70055;39.436;-77.514;2024-01-16T13:26:26;23;23;
80692;PMS5003;70055;39.436;-77.514;2024-01-16T13:28:55;27;26;
80692;PMS5003;70055;39.436;-77.514;2024-01-16T13:31:23;29;25;
80692;PMS5003;70055;39.436;-77.514;2024-01-16T13:33:52;25;23;
80692;PMS5003;70055;39.436;-77.514;2024-01-16T13:36:21;19;19;
80692;PMS5003;70055;39.436;-77.514;2024-01-16T13:38:49;26;26;
80692;PMS5003;70055;39.436;-77.514;2024-01-16T13:41:19;19;19;
80692;PMS5003;70055;39.436;-77.514;2024-01-16T13:43:50;23;21;
80692;PMS5003;70055;39.436;-77.514;2024-01-16T13:46:18;21;21;
80692;PMS5003;70055;39.436;-77.514;2024-01-16T13:48:47;24;21;
80692;PMS5003;70055;39.436;-77.514;2024-01-16T13:51:15;24;22;
80692;PMS5003;70055;39.436;-77.514;2024-01-16T13:53:43;31;27;
80692;PMS5003;70055;39.436;-77.514;2024-01-16T13:56:13;29;28;
80692;PMS5003;70055;39.436;-77.514;2024-01-16T13:58:44;28;27;
80692;PMS5003;70055;39.436;-77.514;2024-01-16T14:01:12;23;23;
80692;PMS5003;70055;39.436;-77.514;2024-01-16T14:03:41;29;29;
80692;PMS5003;70055;39.436;-77.514;2024-01-16T14:06:10;22;22;
80692;PMS5003;70055;39.436;-77.514;2024-01-16T14:08:38;22;20;
80692;PMS5003;70055;39.436;-77.514;2024-01-16T14:11:08;16;16;
80692;PMS5003;70055;39.436;-77.514;2024-01-16T14:13:37;17;16;
80692;PMS5003;70055;39.436;-77.514;2024-01-16T14:16:06;17;17;
80692;PMS5003;70055;39.436;-77.514;2024-01-16T14:18:35;16;16;
80692;PMS5003;70055;39.436;-77.514;2024-01-16T14:21:05;16;16;
80692;PMS5003;70055;39.436;-77.514;2024-01-16T14:23:33;14;14;
80692;PMS5003;70055;39.436;-77.514;2024-01-16T14:26:02;20;19;
80692;PMS5003;70055;39.436;-77.514;2024-01-16T14:28:31;19;19;
80692;PMS5003;70055;39.436;-77.514;2024-01-16T14:30:59;16;16;
80692;PMS5003;70055;39.436;-77.514;2024-01-16T14:33:27;22;22;
80692;PMS5003;70055;39.436;-77.514;2024-01-16T14:35:54;20;20;
80692;PMS5003;70055;39.436;-77.514;2024-01-16T14:38:23;24;22;
80692;PMS5003;70055;39.436;-77.514;2024-01-16T14:40:51;24;24;
80692;PMS5003;70055;39.436;-77.514;2024-01-16T14:43:21;27;25;
80692;PMS5003;70055;39.436;-77.514;2024-01-16T14:45:50;28;28;
80692;PMS5003;70055;39.436;-77.514;2024-01-16T14:48:18;31;28;
80692;PMS5003;70055;39.436;-77.514;2024-01-16T14:50:46;33;31;
80692;PMS5003;70055;39.436;-77.514;2024-01-16T14:53:18;38;37;
80692;PMS5003;70055;39.436;-77.514;2024-01-16T14:55:46;40;40;
80692;PMS5003;70055;39.436;-77.514;2024-01-16T14:58:14;42;38;
80692;PMS5003;70055;39.436;-77.514;2024-01-16T15:00:42;36;35;
80692;PMS5003;70055;39.436;-77.514;2024-01-16T15:03:10;40;39;
80692;PMS5003;70055;39.436;-77.514;2024-01-16T15:05:38;37;37;
80692;PMS5003;70055;39.436;-77.514;2024-01-16T15:08:06;33;31;
80692;PMS5003;70055;39.436;-77.514;2024-01-16T15:10:34;36;34;
80692;PMS5003;70055;39.436;-77.514;2024-01-16T15:13:03;29;27;
80692;PMS5003;70055;39.436;-77.514;2024-01-16T15:15:36;37;34;
80692;PMS5003;70055;39.436;-77.514;2024-01-16T15:18:04;37;37;
80692;PMS5003;70055;39.436;-77.514;2024-01-16T15:20:34;43;41;
80692;PMS5003;70055;39.436;-77.514;2024-01-16T15:23:04;39;36;
80692;PMS5003;70055;39.436;-77.514;2024-01-16T15:25:32;40;38;
80692;PMS5003;70055;39.436;-77.514;2024-01-16T15:28:01;40;37;
80692;PMS5003;70055;39.436;-77.514;2024-01-16T15:30:30;49;49;
80692;PMS5003;70055;39.436;-77.514;2024-01-16T15:32:57;45;43;
80692;PMS5003;70055;39.436;-77.514;2024-01-16T15:35:27;49;46;
80692;PMS5003;70055;39.436;-77.514;2024-01-16T15:37:56;57;52;
80692;PMS5003;70055;39.436;-77.514;2024-01-16T15:40:26;54;52;
80692;PMS5003;70055;39.436;-77.514;2024-01-16T15:42:58;54;48;
80692;PMS5003;70055;39.436;-77.514;2024-01-16T15:45:28;55;52;
80692;PMS5003;70055;39.436;-77.514;2024-01-16T15:47:56;61;57;
80692;PMS5003;70055;39.436;-77.514;2024-01-16T15:50:26;66;61;
80692;PMS5003;70055;39.436;-77.514;2024-01-16T15:52:55;70;64;
80692;PMS5003;70055;39.436;-77.514;2024-01-16T15:55:25;61;58;
80692;PMS5003;70055;39.436;-77.514;2024-01-16T15:57:54;60;55;
80692;PMS5003;70055;39.436;-77.514;2024-01-16T16:00:22;58;57;
80692;PMS5003;70055;39.436;-77.514;2024-01-16T16:02:51;63;55;